Camden, Texas
Current Conditions -  °F | °C
As of 4:53 PM on Tuesday 27 Jan 2015 (Local Time) from KLFK Reporting Station
Clear Clear  
Wind Chill: 79°   Ceiling: Unl
Heat Index: 79°   Visibility: 10mi
Dew Point: 41°   Wind: 0mph
Humidity: 26%   Direction: NA
Pressure: 30.1"   Gusts: NA
Location:  30.92°N, 94.73°W
Report Text: KLFK 272253Z AUTO 00000KT 10SM CLR 26/05 A3010 RMK AO2 SLP191 T02610050
Loading
Personal Weather Stations






























Interactive Weather Map New forecast layout! Learn more

10-Day Weather Forecast

Advertisements
Track Severe Weather on mobile